sensor_id;sensor_type;location;lat;lon;timestamp;temperature;humidity
8372;DHT22;4223;48.724;8.982;2022-08-21T00:01:56;13.90;1.00
8372;DHT22;4223;48.724;8.982;2022-08-21T00:04:23;13.80;1.00
8372;DHT22;4223;48.724;8.982;2022-08-21T00:06:50;13.80;1.00
8372;DHT22;4223;48.724;8.982;2022-08-21T00:09:18;13.80;1.00
8372;DHT22;4223;48.724;8.982;2022-08-21T00:11:47;13.80;1.00
8372;DHT22;4223;48.724;8.982;2022-08-21T00:14:15;13.70;1.00
8372;DHT22;4223;48.724;8.982;2022-08-21T00:16:42;13.70;1.00
8372;DHT22;4223;48.724;8.982;2022-08-21T00:19:09;13.70;1.00
8372;DHT22;4223;48.724;8.982;2022-08-21T00:21:36;13.70;1.00
8372;DHT22;4223;48.724;8.982;2022-08-21T00:24:04;13.60;1.00
8372;DHT22;4223;48.724;8.982;2022-08-21T00:26:31;13.60;1.00
8372;DHT22;4223;48.724;8.982;2022-08-21T00:28:59;13.60;1.00
8372;DHT22;4223;48.724;8.982;2022-08-21T00:31:26;13.60;1.00
8372;DHT22;4223;48.724;8.982;2022-08-21T00:33:53;13.60;1.00
8372;DHT22;4223;48.724;8.982;2022-08-21T00:36:20;13.50;1.00
8372;DHT22;4223;48.724;8.982;2022-08-21T00:38:47;13.40;1.00
8372;DHT22;4223;48.724;8.982;2022-08-21T00:41:14;13.30;1.00
8372;DHT22;4223;48.724;8.982;2022-08-21T00:43:41;13.30;1.00
8372;DHT22;4223;48.724;8.982;2022-08-21T00:46:09;13.30;14.80
8372;DHT22;4223;48.724;8.982;2022-08-21T00:48:36;13.30;1.00
8372;DHT22;4223;48.724;8.982;2022-08-21T00:51:08;13.30;1.00
8372;DHT22;4223;48.724;8.982;2022-08-21T00:53:38;13.20;1.70
8372;DHT22;4223;48.724;8.982;2022-08-21T00:56:07;13.20;6.30
8372;DHT22;4223;48.724;8.982;2022-08-21T00:58:36;13.10;15.40
8372;DHT22;4223;48.724;8.982;2022-08-21T01:01:05;13.10;4.00
8372;DHT22;4223;48.724;8.982;2022-08-21T01:03:34;13.10;1.00
8372;DHT22;4223;48.724;8.982;2022-08-21T01:06:04;13.10;1.00
8372;DHT22;4223;48.724;8.982;2022-08-21T01:08:31;13.00;1.00
8372;DHT22;4223;48.724;8.982;2022-08-21T01:10:59;13.00;1.00
8372;DHT22;4223;48.724;8.982;2022-08-21T01:13:28;13.00;2.90
8372;DHT22;4223;48.724;8.982;2022-08-21T01:15:59;13.00;16.90
8372;DHT22;4223;48.724;8.982;2022-08-21T01:18:29;13.00;8.10
8372;DHT22;4223;48.724;8.982;2022-08-21T01:21:03;13.00;18.40
8372;DHT22;4223;48.724;8.982;2022-08-21T01:23:31;12.90;12.50
8372;DHT22;4223;48.724;8.982;2022-08-21T01:25:58;12.90;11.00
8372;DHT22;4223;48.724;8.982;2022-08-21T01:28:25;12.90;20.90
8372;DHT22;4223;48.724;8.982;2022-08-21T01:30:53;12.80;21.00
8372;DHT22;4223;48.724;8.982;2022-08-21T01:33:24;12.80;19.40
8372;DHT22;4223;48.724;8.982;2022-08-21T01:35:51;12.80;17.20
8372;DHT22;4223;48.724;8.982;2022-08-21T01:38:19;12.80;19.40
8372;DHT22;4223;48.724;8.982;2022-08-21T01:40:46;12.80;14.00
8372;DHT22;4223;48.724;8.982;2022-08-21T01:43:13;12.80;26.60
8372;DHT22;4223;48.724;8.982;2022-08-21T01:45:42;12.70;20.80
8372;DHT22;4223;48.724;8.982;2022-08-21T01:48:08;12.70;27.20
8372;DHT22;4223;48.724;8.982;2022-08-21T01:50:36;12.70;31.60
8372;DHT22;4223;48.724;8.982;2022-08-21T01:53:04;12.70;36.20
8372;DHT22;4223;48.724;8.982;2022-08-21T01:55:32;12.70;29.40
8372;DHT22;4223;48.724;8.982;2022-08-21T01:57:59;12.70;28.60
8372;DHT22;4223;48.724;8.982;2022-08-21T02:00:26;12.60;37.40
8372;DHT22;4223;48.724;8.982;2022-08-21T02:02:53;12.60;42.70
8372;DHT22;4223;48.724;8.982;2022-08-21T02:05:21;12.60;33.20
8372;DHT22;4223;48.724;8.982;2022-08-21T02:07:50;12.60;36.40
8372;DHT22;4223;48.724;8.982;2022-08-21T02:10:21;12.60;45.60
8372;DHT22;4223;48.724;8.982;2022-08-21T02:12:49;12.60;54.00
8372;DHT22;4223;48.724;8.982;2022-08-21T02:15:16;12.50;44.70
8372;DHT22;4223;48.724;8.982;2022-08-21T02:17:46;12.60;44.70
8372;DHT22;4223;48.724;8.982;2022-08-21T02:20:17;12.50;31.50
8372;DHT22;4223;48.724;8.982;2022-08-21T02:22:44;12.50;41.80
8372;DHT22;4223;48.724;8.982;2022-08-21T02:25:11;12.50;44.80
8372;DHT22;4223;48.724;8.982;2022-08-21T02:27:40;12.50;49.80
8372;DHT22;4223;48.724;8.982;2022-08-21T02:30:11;12.40;46.90
8372;DHT22;4223;48.724;8.982;2022-08-21T02:32:39;12.50;49.70
8372;DHT22;4223;48.724;8.982;2022-08-21T02:35:08;12.50;54.90
8372;DHT22;4223;48.724;8.982;2022-08-21T02:37:42;12.50;59.70
8372;DHT22;4223;48.724;8.982;2022-08-21T02:40:10;12.50;57.60
8372;DHT22;4223;48.724;8.982;2022-08-21T02:42:37;12.40;39.60
8372;DHT22;4223;48.724;8.982;2022-08-21T02:45:05;12.40;45.30
8372;DHT22;4223;48.724;8.982;2022-08-21T02:47:33;12.30;36.50
8372;DHT22;4223;48.724;8.982;2022-08-21T02:50:00;12.30;45.00
8372;DHT22;4223;48.724;8.982;2022-08-21T02:52:27;12.30;53.50
8372;DHT22;4223;48.724;8.982;2022-08-21T02:54:54;12.30;46.10
8372;DHT22;4223;48.724;8.982;2022-08-21T02:57:21;12.30;55.70
8372;DHT22;4223;48.724;8.982;2022-08-21T02:59:48;12.20;53.50
8372;DHT22;4223;48.724;8.982;2022-08-21T03:02:15;12.20;50.90
8372;DHT22;4223;48.724;8.982;2022-08-21T03:04:43;12.20;61.00
8372;DHT22;4223;48.724;8.982;2022-08-21T03:07:10;12.20;60.80
8372;DHT22;4223;48.724;8.982;2022-08-21T03:09:36;12.20;59.10
8372;DHT22;4223;48.724;8.982;2022-08-21T03:12:04;12.10;52.80
8372;DHT22;4223;48.724;8.982;2022-08-21T03:14:31;12.10;49.30
8372;DHT22;4223;48.724;8.982;2022-08-21T03:16:58;12.00;52.50
8372;DHT22;4223;48.724;8.982;2022-08-21T03:19:25;12.00;50.30
8372;DHT22;4223;48.724;8.982;2022-08-21T03:21:53;11.90;46.50
8372;DHT22;4223;48.724;8.982;2022-08-21T03:24:20;11.90;47.90
8372;DHT22;4223;48.724;8.982;2022-08-21T03:26:46;11.90;53.80
8372;DHT22;4223;48.724;8.982;2022-08-21T03:29:13;11.90;53.70
8372;DHT22;4223;48.724;8.982;2022-08-21T03:31:40;11.90;57.70
8372;DHT22;4223;48.724;8.982;2022-08-21T03:34:07;11.80;54.40
8372;DHT22;4223;48.724;8.982;2022-08-21T03:36:34;11.80;63.60
8372;DHT22;4223;48.724;8.982;2022-08-21T03:39:03;11.70;66.90
8372;DHT22;4223;48.724;8.982;2022-08-21T03:41:30;11.80;77.50
8372;DHT22;4223;48.724;8.982;2022-08-21T03:43:56;11.80;66.60
8372;DHT22;4223;48.724;8.982;2022-08-21T03:46:24;11.70;66.80
8372;DHT22;4223;48.724;8.982;2022-08-21T03:48:51;11.70;68.30
8372;DHT22;4223;48.724;8.982;2022-08-21T03:51:18;11.80;71.10
8372;DHT22;4223;48.724;8.982;2022-08-21T03:53:45;11.80;80.40
8372;DHT22;4223;48.724;8.982;2022-08-21T03:56:13;11.80;75.90
8372;DHT22;4223;48.724;8.982;2022-08-21T03:58:41;11.80;78.40
8372;DHT22;4223;48.724;8.982;2022-08-21T04:01:08;11.80;78.40
8372;DHT22;4223;48.724;8.982;2022-08-21T04:03:37;11.70;74.90
8372;DHT22;4223;48.724;8.982;2022-08-21T04:06:04;11.70;78.30
8372;DHT22;4223;48.724;8.982;2022-08-21T04:08:31;11.70;76.40
8372;DHT22;4223;48.724;8.982;2022-08-21T04:10:59;11.70;80.50
8372;DHT22;4223;48.724;8.982;2022-08-21T04:13:28;11.70;72.90
8372;DHT22;4223;48.724;8.982;2022-08-21T04:15:55;11.70;77.90
8372;DHT22;4223;48.724;8.982;2022-08-21T04:18:23;11.70;79.40
8372;DHT22;4223;48.724;8.982;2022-08-21T04:20:51;11.70;80.30
8372;DHT22;4223;48.724;8.982;2022-08-21T04:23:22;11.70;68.00
8372;DHT22;4223;48.724;8.982;2022-08-21T04:25:50;11.60;71.10
8372;DHT22;4223;48.724;8.982;2022-08-21T04:28:17;11.60;72.20
8372;DHT22;4223;48.724;8.982;2022-08-21T04:30:45;11.60;77.00
8372;DHT22;4223;48.724;8.982;2022-08-21T04:33:13;11.60;72.70
8372;DHT22;4223;48.724;8.982;2022-08-21T04:35:40;11.60;79.70
8372;DHT22;4223;48.724;8.982;2022-08-21T04:38:07;11.60;67.50
8372;DHT22;4223;48.724;8.982;2022-08-21T04:40:34;11.50;69.60
8372;DHT22;4223;48.724;8.982;2022-08-21T04:43:04;11.50;70.40
8372;DHT22;4223;48.724;8.982;2022-08-21T04:45:33;11.40;77.50
8372;DHT22;4223;48.724;8.982;2022-08-21T04:48:04;11.40;78.40
8372;DHT22;4223;48.724;8.982;2022-08-21T04:50:37;11.40;79.80
8372;DHT22;4223;48.724;8.982;2022-08-21T04:53:07;11.40;87.90
8372;DHT22;4223;48.724;8.982;2022-08-21T04:55:35;11.50;90.30
8372;DHT22;4223;48.724;8.982;2022-08-21T04:58:04;11.60;87.70
8372;DHT22;4223;48.724;8.982;2022-08-21T05:00:32;11.60;87.40
8372;DHT22;4223;48.724;8.982;2022-08-21T05:03:01;11.60;85.80
8372;DHT22;4223;48.724;8.982;2022-08-21T05:05:29;11.60;87.20
8372;DHT22;4223;48.724;8.982;2022-08-21T05:07:57;11.70;88.60
8372;DHT22;4223;48.724;8.982;2022-08-21T05:10:25;11.80;88.40
8372;DHT22;4223;48.724;8.982;2022-08-21T05:12:52;11.90;84.70
8372;DHT22;4223;48.724;8.982;2022-08-21T05:15:19;11.90;72.10
8372;DHT22;4223;48.724;8.982;2022-08-21T05:17:47;12.00;75.50
8372;DHT22;4223;48.724;8.982;2022-08-21T05:20:17;12.00;68.00
8372;DHT22;4223;48.724;8.982;2022-08-21T05:22:45;12.10;65.20
8372;DHT22;4223;48.724;8.982;2022-08-21T05:25:12;12.10;69.30
8372;DHT22;4223;48.724;8.982;2022-08-21T05:27:39;12.10;67.40
8372;DHT22;4223;48.724;8.982;2022-08-21T05:30:07;12.20;62.70
8372;DHT22;4223;48.724;8.982;2022-08-21T05:32:34;12.20;61.80
8372;DHT22;4223;48.724;8.982;2022-08-21T05:35:01;12.20;61.50
8372;DHT22;4223;48.724;8.982;2022-08-21T05:37:30;12.30;63.60
8372;DHT22;4223;48.724;8.982;2022-08-21T05:39:57;12.30;62.00
8372;DHT22;4223;48.724;8.982;2022-08-21T05:42:23;12.40;55.50
8372;DHT22;4223;48.724;8.982;2022-08-21T05:44:50;12.40;61.00
8372;DHT22;4223;48.724;8.982;2022-08-21T05:47:17;12.50;57.10
8372;DHT22;4223;48.724;8.982;2022-08-21T05:49:44;12.60;52.40
8372;DHT22;4223;48.724;8.982;2022-08-21T05:52:12;12.70;43.10
8372;DHT22;4223;48.724;8.982;2022-08-21T05:54:45;12.70;46.50
8372;DHT22;4223;48.724;8.982;2022-08-21T05:57:12;12.70;50.70
8372;DHT22;4223;48.724;8.982;2022-08-21T05:59:39;12.80;56.10
8372;DHT22;4223;48.724;8.982;2022-08-21T06:02:06;12.90;52.50
8372;DHT22;4223;48.724;8.982;2022-08-21T06:04:35;13.00;46.40
8372;DHT22;4223;48.724;8.982;2022-08-21T06:07:03;13.10;45.60
8372;DHT22;4223;48.724;8.982;2022-08-21T06:09:29;13.20;38.00
8372;DHT22;4223;48.724;8.982;2022-08-21T06:11:58;13.30;25.50
8372;DHT22;4223;48.724;8.982;2022-08-21T06:14:25;13.50;12.90
8372;DHT22;4223;48.724;8.982;2022-08-21T06:16:51;13.60;4.10
8372;DHT22;4223;48.724;8.982;2022-08-21T06:19:18;13.70;5.40
8372;DHT22;4223;48.724;8.982;2022-08-21T06:21:45;13.80;1.00
8372;DHT22;4223;48.724;8.982;2022-08-21T06:24:12;14.00;1.00
8372;DHT22;4223;48.724;8.982;2022-08-21T06:26:39;14.10;1.00
8372;DHT22;4223;48.724;8.982;2022-08-21T06:29:07;14.20;1.00
8372;DHT22;4223;48.724;8.982;2022-08-21T06:31:36;14.30;1.00
8372;DHT22;4223;48.724;8.982;2022-08-21T06:34:02;14.40;1.00
8372;DHT22;4223;48.724;8.982;2022-08-21T06:36:29;14.50;1.00
8372;DHT22;4223;48.724;8.982;2022-08-21T06:38:56;14.70;1.00
8372;DHT22;4223;48.724;8.982;2022-08-21T06:41:23;14.90;1.00
8372;DHT22;4223;48.724;8.982;2022-08-21T06:43:50;15.10;1.00
8372;DHT22;4223;48.724;8.982;2022-08-21T06:46:18;15.40;1.00
8372;DHT22;4223;48.724;8.982;2022-08-21T06:48:45;15.60;99.90
8372;DHT22;4223;48.724;8.982;2022-08-21T06:51:12;15.70;99.90
8372;DHT22;4223;48.724;8.982;2022-08-21T06:53:39;15.90;1.00
8372;DHT22;4223;48.724;8.982;2022-08-21T06:56:06;16.20;99.90
8372;DHT22;4223;48.724;8.982;2022-08-21T06:58:33;16.40;99.90
8372;DHT22;4223;48.724;8.982;2022-08-21T07:01:00;16.70;99.90
8372;DHT22;4223;48.724;8.982;2022-08-21T07:03:35;17.00;1.00
8372;DHT22;4223;48.724;8.982;2022-08-21T07:06:03;17.10;99.90
8372;DHT22;4223;48.724;8.982;2022-08-21T07:08:30;17.20;1.00
8372;DHT22;4223;48.724;8.982;2022-08-21T07:10:58;17.30;99.90
8372;DHT22;4223;48.724;8.982;2022-08-21T07:13:26;17.60;99.90
8372;DHT22;4223;48.724;8.982;2022-08-21T07:15:53;17.90;99.90
8372;DHT22;4223;48.724;8.982;2022-08-21T07:18:20;18.40;1.00
8372;DHT22;4223;48.724;8.982;2022-08-21T07:20:49;18.70;1.00
8372;DHT22;4223;48.724;8.982;2022-08-21T07:23:21;19.40;99.90
8372;DHT22;4223;48.724;8.982;2022-08-21T07:25:48;20.10;12.40
8372;DHT22;4223;48.724;8.982;2022-08-21T07:28:15;20.70;1.00
8372;DHT22;4223;48.724;8.982;2022-08-21T07:30:42;21.50;1.00
8372;DHT22;4223;48.724;8.982;2022-08-21T07:33:09;22.50;99.90
8372;DHT22;4223;48.724;8.982;2022-08-21T07:35:36;23.30;99.90
8372;DHT22;4223;48.724;8.982;2022-08-21T07:38:04;24.40;99.90
8372;DHT22;4223;48.724;8.982;2022-08-21T07:40:31;24.90;99.90
8372;DHT22;4223;48.724;8.982;2022-08-21T07:42:58;25.50;99.90
8372;DHT22;4223;48.724;8.982;2022-08-21T07:45:25;26.70;99.90
8372;DHT22;4223;48.724;8.982;2022-08-21T07:47:52;27.50;99.90
8372;DHT22;4223;48.724;8.982;2022-08-21T07:50:19;28.10;99.90
8372;DHT22;4223;48.724;8.982;2022-08-21T07:52:46;29.20;99.90
8372;DHT22;4223;48.724;8.982;2022-08-21T07:55:17;29.60;99.90
8372;DHT22;4223;48.724;8.982;2022-08-21T07:57:45;30.00;99.90
8372;DHT22;4223;48.724;8.982;2022-08-21T08:00:14;30.30;99.90
8372;DHT22;4223;48.724;8.982;2022-08-21T08:02:44;30.10;99.90
8372;DHT22;4223;48.724;8.982;2022-08-21T08:05:12;29.90;99.90
8372;DHT22;4223;48.724;8.982;2022-08-21T08:07:39;29.70;99.90
8372;DHT22;4223;48.724;8.982;2022-08-21T08:10:08;30.20;99.90
8372;DHT22;4223;48.724;8.982;2022-08-21T08:12:38;30.20;99.90
8372;DHT22;4223;48.724;8.982;2022-08-21T08:15:08;30.70;99.90
8372;DHT22;4223;48.724;8.982;2022-08-21T08:17:35;31.30;99.90
8372;DHT22;4223;48.724;8.982;2022-08-21T08:20:03;31.70;99.90
8372;DHT22;4223;48.724;8.982;2022-08-21T08:22:30;31.80;99.90
8372;DHT22;4223;48.724;8.982;2022-08-21T08:24:57;30.50;99.90
8372;DHT22;4223;48.724;8.982;2022-08-21T08:27:25;29.70;99.90
8372;DHT22;4223;48.724;8.982;2022-08-21T08:29:53;30.70;99.90
8372;DHT22;4223;48.724;8.982;2022-08-21T08:32:23;31.50;99.20
8372;DHT22;4223;48.724;8.982;2022-08-21T08:34:50;32.50;98.10
8372;DHT22;4223;48.724;8.982;2022-08-21T08:37:19;32.50;95.20
8372;DHT22;4223;48.724;8.982;2022-08-21T08:39:46;32.40;90.90
8372;DHT22;4223;48.724;8.982;2022-08-21T08:42:22;30.90;91.20
8372;DHT22;4223;48.724;8.982;2022-08-21T08:44:58;30.70;91.60
8372;DHT22;4223;48.724;8.982;2022-08-21T08:47:26;31.20;92.30
8372;DHT22;4223;48.724;8.982;2022-08-21T08:49:59;31.50;92.90
8372;DHT22;4223;48.724;8.982;2022-08-21T08:52:30;32.30;90.40
8372;DHT22;4223;48.724;8.982;2022-08-21T08:55:04;32.50;89.70
8372;DHT22;4223;48.724;8.982;2022-08-21T08:57:31;31.70;88.60
8372;DHT22;4223;48.724;8.982;2022-08-21T09:00:05;31.90;87.00
8372;DHT22;4223;48.724;8.982;2022-08-21T09:02:33;31.00;85.80
8372;DHT22;4223;48.724;8.982;2022-08-21T09:05:00;31.60;86.80
8372;DHT22;4223;48.724;8.982;2022-08-21T09:07:35;32.00;83.70
8372;DHT22;4223;48.724;8.982;2022-08-21T09:10:13;31.60;87.10
8372;DHT22;4223;48.724;8.982;2022-08-21T09:12:51;32.20;83.90
8372;DHT22;4223;48.724;8.982;2022-08-21T09:15:25;32.50;84.70
8372;DHT22;4223;48.724;8.982;2022-08-21T09:18:11;32.60;81.30
8372;DHT22;4223;48.724;8.982;2022-08-21T09:20:49;32.50;84.90
8372;DHT22;4223;48.724;8.982;2022-08-21T09:23:36;32.70;76.80
8372;DHT22;4223;48.724;8.982;2022-08-21T09:26:12;32.20;78.90
8372;DHT22;4223;48.724;8.982;2022-08-21T09:28:39;32.00;76.30
8372;DHT22;4223;48.724;8.982;2022-08-21T09:31:19;31.70;76.10
8372;DHT22;4223;48.724;8.982;2022-08-21T09:33:47;32.20;77.90
8372;DHT22;4223;48.724;8.982;2022-08-21T09:36:23;32.30;79.50
8372;DHT22;4223;48.724;8.982;2022-08-21T09:38:53;32.50;77.90
8372;DHT22;4223;48.724;8.982;2022-08-21T09:41:26;31.80;74.20
8372;DHT22;4223;48.724;8.982;2022-08-21T09:43:54;32.40;75.80
8372;DHT22;4223;48.724;8.982;2022-08-21T09:46:23;32.30;76.60
8372;DHT22;4223;48.724;8.982;2022-08-21T09:48:52;32.80;71.20
8372;DHT22;4223;48.724;8.982;2022-08-21T09:51:22;31.40;72.40
8372;DHT22;4223;48.724;8.982;2022-08-21T09:53:53;31.10;70.60
8372;DHT22;4223;48.724;8.982;2022-08-21T09:56:29;31.20;70.00
8372;DHT22;4223;48.724;8.982;2022-08-21T09:59:18;30.40;68.30
8372;DHT22;4223;48.724;8.982;2022-08-21T10:01:48;30.70;72.90
8372;DHT22;4223;48.724;8.982;2022-08-21T10:04:21;31.30;69.90
8372;DHT22;4223;48.724;8.982;2022-08-21T10:06:48;31.20;70.00
8372;DHT22;4223;48.724;8.982;2022-08-21T10:09:17;31.20;87.10
8372;DHT22;4223;48.724;8.982;2022-08-21T10:11:52;30.80;68.10
8372;DHT22;4223;48.724;8.982;2022-08-21T10:14:35;31.00;68.30
8372;DHT22;4223;48.724;8.982;2022-08-21T10:17:16;31.00;69.70
8372;DHT22;4223;48.724;8.982;2022-08-21T10:19:49;31.10;69.80
8372;DHT22;4223;48.724;8.982;2022-08-21T10:22:27;31.20;67.90
8372;DHT22;4223;48.724;8.982;2022-08-21T10:25:04;31.10;70.00
8372;DHT22;4223;48.724;8.982;2022-08-21T10:27:39;31.00;70.00
8372;DHT22;4223;48.724;8.982;2022-08-21T10:30:11;31.20;68.00
8372;DHT22;4223;48.724;8.982;2022-08-21T10:35:55;30.90;65.80
8372;DHT22;4223;48.724;8.982;2022-08-21T10:38:59;30.60;67.30
8372;DHT22;4223;48.724;8.982;2022-08-21T10:41:52;30.50;68.90
8372;DHT22;4223;48.724;8.982;2022-08-21T10:44:30;30.90;64.60
8372;DHT22;4223;48.724;8.982;2022-08-21T10:47:05;30.50;65.40
8372;DHT22;4223;48.724;8.982;2022-08-21T10:49:39;30.00;65.90
8372;DHT22;4223;48.724;8.982;2022-08-21T10:52:32;30.20;65.30
8372;DHT22;4223;48.724;8.982;2022-08-21T10:55:04;30.20;68.00
8372;DHT22;4223;48.724;8.982;2022-08-21T10:57:38;30.80;67.30
8372;DHT22;4223;48.724;8.982;2022-08-21T11:00:09;31.20;66.90
8372;DHT22;4223;48.724;8.982;2022-08-21T11:02:40;31.10;65.80
8372;DHT22;4223;48.724;8.982;2022-08-21T11:05:12;31.00;65.80
8372;DHT22;4223;48.724;8.982;2022-08-21T11:07:45;30.90;67.90
8372;DHT22;4223;48.724;8.982;2022-08-21T11:10:18;31.10;62.30
8372;DHT22;4223;48.724;8.982;2022-08-21T11:12:49;30.80;63.20
8372;DHT22;4223;48.724;8.982;2022-08-21T11:15:27;30.50;63.40
8372;DHT22;4223;48.724;8.982;2022-08-21T11:18:02;30.50;64.10
8372;DHT22;4223;48.724;8.982;2022-08-21T11:20:34;29.80;62.40
8372;DHT22;4223;48.724;8.982;2022-08-21T11:23:08;29.60;63.20
8372;DHT22;4223;48.724;8.982;2022-08-21T11:25:42;29.60;63.10
8372;DHT22;4223;48.724;8.982;2022-08-21T11:28:17;29.80;62.80
8372;DHT22;4223;48.724;8.982;2022-08-21T11:30:52;29.70;63.20
8372;DHT22;4223;48.724;8.982;2022-08-21T11:33:31;30.00;61.80
8372;DHT22;4223;48.724;8.982;2022-08-21T11:36:11;30.20;61.30
8372;DHT22;4223;48.724;8.982;2022-08-21T11:38:43;30.30;61.80
8372;DHT22;4223;48.724;8.982;2022-08-21T11:41:23;30.40;59.70
8372;DHT22;4223;48.724;8.982;2022-08-21T11:43:57;30.30;61.00
8372;DHT22;4223;48.724;8.982;2022-08-21T11:46:33;30.60;59.90
8372;DHT22;4223;48.724;8.982;2022-08-21T11:49:34;30.50;60.20
8372;DHT22;4223;48.724;8.982;2022-08-21T11:52:11;30.70;57.50
8372;DHT22;4223;48.724;8.982;2022-08-21T11:54:44;30.60;60.00
8372;DHT22;4223;48.724;8.982;2022-08-21T11:57:17;30.60;58.40
8372;DHT22;4223;48.724;8.982;2022-08-21T11:59:49;30.60;58.70
8372;DHT22;4223;48.724;8.982;2022-08-21T12:02:21;30.10;59.30
8372;DHT22;4223;48.724;8.982;2022-08-21T12:04:52;30.00;58.10
8372;DHT22;4223;48.724;8.982;2022-08-21T12:07:32;30.20;60.00
8372;DHT22;4223;48.724;8.982;2022-08-21T12:10:02;29.90;58.20
8372;DHT22;4223;48.724;8.982;2022-08-21T12:12:31;30.20;56.70
8372;DHT22;4223;48.724;8.982;2022-08-21T12:15:23;30.30;59.10
8372;DHT22;4223;48.724;8.982;2022-08-21T12:17:57;30.60;57.60
8372;DHT22;4223;48.724;8.982;2022-08-21T12:20:43;31.00;57.80
8372;DHT22;4223;48.724;8.982;2022-08-21T12:23:30;31.00;56.10
8372;DHT22;4223;48.724;8.982;2022-08-21T12:26:16;30.80;56.80
8372;DHT22;4223;48.724;8.982;2022-08-21T12:28:44;30.80;54.90
8372;DHT22;4223;48.724;8.982;2022-08-21T12:31:24;30.80;56.20
8372;DHT22;4223;48.724;8.982;2022-08-21T12:33:55;30.90;57.20
8372;DHT22;4223;48.724;8.982;2022-08-21T12:36:25;30.90;55.90
8372;DHT22;4223;48.724;8.982;2022-08-21T12:38:57;30.70;55.50
8372;DHT22;4223;48.724;8.982;2022-08-21T12:41:28;31.10;58.00
8372;DHT22;4223;48.724;8.982;2022-08-21T12:43:59;31.20;56.60
8372;DHT22;4223;48.724;8.982;2022-08-21T12:46:32;31.40;55.20
8372;DHT22;4223;48.724;8.982;2022-08-21T12:49:05;31.20;55.20
8372;DHT22;4223;48.724;8.982;2022-08-21T12:51:48;30.70;57.70
8372;DHT22;4223;48.724;8.982;2022-08-21T12:54:24;30.80;54.80
8372;DHT22;4223;48.724;8.982;2022-08-21T12:57:00;30.80;55.10
8372;DHT22;4223;48.724;8.982;2022-08-21T12:59:28;30.40;54.80
8372;DHT22;4223;48.724;8.982;2022-08-21T13:01:56;30.60;55.90
8372;DHT22;4223;48.724;8.982;2022-08-21T13:04:31;30.80;54.20
8372;DHT22;4223;48.724;8.982;2022-08-21T13:07:00;30.80;53.50
8372;DHT22;4223;48.724;8.982;2022-08-21T13:09:29;30.50;53.70
8372;DHT22;4223;48.724;8.982;2022-08-21T13:11:59;30.40;56.50
8372;DHT22;4223;48.724;8.982;2022-08-21T13:14:30;30.90;53.90
8372;DHT22;4223;48.724;8.982;2022-08-21T13:16:59;29.90;55.10
8372;DHT22;4223;48.724;8.982;2022-08-21T13:19:27;30.30;54.50
8372;DHT22;4223;48.724;8.982;2022-08-21T13:21:55;30.60;54.30
8372;DHT22;4223;48.724;8.982;2022-08-21T13:24:25;30.70;55.10
8372;DHT22;4223;48.724;8.982;2022-08-21T13:26:54;31.20;55.80
8372;DHT22;4223;48.724;8.982;2022-08-21T13:29:28;31.40;53.30
8372;DHT22;4223;48.724;8.982;2022-08-21T13:31:57;31.60;53.00
8372;DHT22;4223;48.724;8.982;2022-08-21T13:34:29;31.40;52.50
8372;DHT22;4223;48.724;8.982;2022-08-21T13:36:59;30.50;51.70
8372;DHT22;4223;48.724;8.982;2022-08-21T13:39:27;29.50;52.70
8372;DHT22;4223;48.724;8.982;2022-08-21T13:41:56;28.80;53.10
8372;DHT22;4223;48.724;8.982;2022-08-21T13:44:35;28.00;55.10
8372;DHT22;4223;48.724;8.982;2022-08-21T13:47:03;27.50;55.00
8372;DHT22;4223;48.724;8.982;2022-08-21T13:49:33;27.10;56.80
8372;DHT22;4223;48.724;8.982;2022-08-21T13:52:01;26.80;57.50
8372;DHT22;4223;48.724;8.982;2022-08-21T13:54:36;26.70;57.90
8372;DHT22;4223;48.724;8.982;2022-08-21T13:57:04;26.70;58.30
8372;DHT22;4223;48.724;8.982;2022-08-21T13:59:43;27.20;59.80
8372;DHT22;4223;48.724;8.982;2022-08-21T14:02:13;28.00;59.80
8372;DHT22;4223;48.724;8.982;2022-08-21T14:04:47;28.20;57.60
8372;DHT22;4223;48.724;8.982;2022-08-21T14:07:19;27.70;57.10
8372;DHT22;4223;48.724;8.982;2022-08-21T14:09:46;26.90;56.40
8372;DHT22;4223;48.724;8.982;2022-08-21T14:12:17;26.30;58.00
8372;DHT22;4223;48.724;8.982;2022-08-21T14:14:47;26.00;59.00
8372;DHT22;4223;48.724;8.982;2022-08-21T14:17:27;26.00;60.70
8372;DHT22;4223;48.724;8.982;2022-08-21T14:19:54;26.20;58.80
8372;DHT22;4223;48.724;8.982;2022-08-21T14:22:23;26.20;59.60
8372;DHT22;4223;48.724;8.982;2022-08-21T14:24:59;26.80;62.60
8372;DHT22;4223;48.724;8.982;2022-08-21T14:27:29;27.60;59.60
8372;DHT22;4223;48.724;8.982;2022-08-21T14:30:00;28.50;58.50
8372;DHT22;4223;48.724;8.982;2022-08-21T14:32:29;28.90;58.50
8372;DHT22;4223;48.724;8.982;2022-08-21T14:34:57;29.10;73.00
8372;DHT22;4223;48.724;8.982;2022-08-21T14:37:24;29.40;54.60
8372;DHT22;4223;48.724;8.982;2022-08-21T14:39:51;29.60;53.70
8372;DHT22;4223;48.724;8.982;2022-08-21T14:42:18;30.00;53.70
8372;DHT22;4223;48.724;8.982;2022-08-21T14:44:45;30.20;53.10
8372;DHT22;4223;48.724;8.982;2022-08-21T14:47:13;30.20;52.60
8372;DHT22;4223;48.724;8.982;2022-08-21T14:49:40;30.00;52.70
8372;DHT22;4223;48.724;8.982;2022-08-21T14:52:08;30.30;51.20
8372;DHT22;4223;48.724;8.982;2022-08-21T14:54:35;30.40;51.40
8372;DHT22;4223;48.724;8.982;2022-08-21T14:57:05;30.50;50.60
8372;DHT22;4223;48.724;8.982;2022-08-21T14:59:34;30.70;51.90
8372;DHT22;4223;48.724;8.982;2022-08-21T15:02:01;31.00;50.10
8372;DHT22;4223;48.724;8.982;2022-08-21T15:04:31;30.70;49.20
8372;DHT22;4223;48.724;8.982;2022-08-21T15:06:58;31.00;48.90
8372;DHT22;4223;48.724;8.982;2022-08-21T15:09:25;31.40;48.20
8372;DHT22;4223;48.724;8.982;2022-08-21T15:11:55;31.50;47.80
8372;DHT22;4223;48.724;8.982;2022-08-21T15:14:26;31.80;48.00
8372;DHT22;4223;48.724;8.982;2022-08-21T15:16:53;31.80;48.80
8372;DHT22;4223;48.724;8.982;2022-08-21T15:19:20;31.70;47.60
8372;DHT22;4223;48.724;8.982;2022-08-21T15:21:48;31.80;47.60
8372;DHT22;4223;48.724;8.982;2022-08-21T15:24:15;31.50;47.70
8372;DHT22;4223;48.724;8.982;2022-08-21T15:26:43;31.40;48.50
8372;DHT22;4223;48.724;8.982;2022-08-21T15:29:10;31.60;48.30
8372;DHT22;4223;48.724;8.982;2022-08-21T15:31:50;31.50;47.50
8372;DHT22;4223;48.724;8.982;2022-08-21T15:34:17;31.00;45.70
8372;DHT22;4223;48.724;8.982;2022-08-21T15:36:44;30.10;47.50
8372;DHT22;4223;48.724;8.982;2022-08-21T15:39:12;29.80;46.70
8372;DHT22;4223;48.724;8.982;2022-08-21T15:41:39;29.80;47.80
8372;DHT22;4223;48.724;8.982;2022-08-21T15:44:09;29.70;48.00
8372;DHT22;4223;48.724;8.982;2022-08-21T15:46:36;29.60;47.40
8372;DHT22;4223;48.724;8.982;2022-08-21T15:49:04;29.50;48.70
8372;DHT22;4223;48.724;8.982;2022-08-21T15:51:32;29.50;48.20
8372;DHT22;4223;48.724;8.982;2022-08-21T15:53:59;29.40;48.10
8372;DHT22;4223;48.724;8.982;2022-08-21T15:56:32;29.60;47.50
8372;DHT22;4223;48.724;8.982;2022-08-21T15:59:02;29.00;46.70
8372;DHT22;4223;48.724;8.982;2022-08-21T16:01:30;28.90;47.40
8372;DHT22;4223;48.724;8.982;2022-08-21T16:03:59;28.80;47.90
8372;DHT22;4223;48.724;8.982;2022-08-21T16:06:26;28.70;47.70
8372;DHT22;4223;48.724;8.982;2022-08-21T16:08:53;28.80;48.40
8372;DHT22;4223;48.724;8.982;2022-08-21T16:11:20;28.80;46.80
8372;DHT22;4223;48.724;8.982;2022-08-21T16:13:49;28.60;46.60
8372;DHT22;4223;48.724;8.982;2022-08-21T16:16:20;28.50;46.10
8372;DHT22;4223;48.724;8.982;2022-08-21T16:18:49;28.30;46.80
8372;DHT22;4223;48.724;8.982;2022-08-21T16:21:17;28.40;48.00
8372;DHT22;4223;48.724;8.982;2022-08-21T16:23:44;28.30;47.80
8372;DHT22;4223;48.724;8.982;2022-08-21T16:26:13;28.40;47.10